createdAt,value
2017-08-14T00:00:13.951Z,20.44
2017-08-14T00:02:43.211Z,20.48
2017-08-14T00:05:12.611Z,20.50
2017-08-14T00:07:41.931Z,20.51
2017-08-14T00:10:09.404Z,20.53
2017-08-14T00:12:39.032Z,20.54
2017-08-14T00:15:08.368Z,20.56
2017-08-14T00:17:37.818Z,20.57
2017-08-14T00:20:07.209Z,20.57
2017-08-14T00:22:36.843Z,20.55
2017-08-14T00:25:06.514Z,20.54
2017-08-14T00:27:35.650Z,20.51
2017-08-14T00:30:05.343Z,20.54
2017-08-14T00:32:34.524Z,20.55
2017-08-14T00:35:05.615Z,20.38
2017-08-14T00:37:35.232Z,20.44
2017-08-14T00:40:04.509Z,20.42
2017-08-14T00:42:33.680Z,20.51
2017-08-14T00:45:03.405Z,20.55
2017-08-14T00:47:32.734Z,20.57
2017-08-14T00:50:02.271Z,20.61
2017-08-14T00:52:31.636Z,20.65
2017-08-14T00:55:01.252Z,20.65
2017-08-14T00:57:30.633Z,20.62
2017-08-14T00:59:59.836Z,20.63
2017-08-14T01:02:28.963Z,20.61
2017-08-14T01:04:58.636Z,20.63
2017-08-14T01:07:28.015Z,20.60
2017-08-14T01:09:57.734Z,20.61
2017-08-14T01:12:27.477Z,20.62
2017-08-14T01:14:56.723Z,20.59
2017-08-14T01:17:29.326Z,20.57
2017-08-14T01:20:00.819Z,20.55
2017-08-14T01:22:31.405Z,20.39
2017-08-14T01:25:00.855Z,20.36
2017-08-14T01:27:29.778Z,20.34
2017-08-14T01:29:59.073Z,20.34
2017-08-14T01:32:28.814Z,20.35
2017-08-14T01:34:56.902Z,20.35
2017-08-14T01:37:26.493Z,20.34
2017-08-14T01:39:55.459Z,20.32
2017-08-14T01:42:24.892Z,20.30
2017-08-14T01:44:54.312Z,20.30
2017-08-14T01:47:22.501Z,20.29
2017-08-14T01:49:52.126Z,20.24
2017-08-14T01:52:21.300Z,20.18
2017-08-14T01:54:50.693Z,20.11
2017-08-14T01:57:20.310Z,20.12
2017-08-14T01:59:49.229Z,20.08
2017-08-14T02:02:17.553Z,20.04
2017-08-14T02:04:46.626Z,20.02
2017-08-14T02:07:15.839Z,19.99
2017-08-14T02:09:44.844Z,19.99
2017-08-14T02:12:14.206Z,20.00
2017-08-14T02:14:43.313Z,19.99
2017-08-14T02:17:12.993Z,19.95
2017-08-14T02:19:42.230Z,19.93
2017-08-14T02:22:11.934Z,19.92
2017-08-14T02:24:41.567Z,19.86
2017-08-14T02:27:10.744Z,19.84
2017-08-14T02:29:38.537Z,19.80
2017-08-14T02:32:07.991Z,19.75
2017-08-14T02:34:37.432Z,19.73
2017-08-14T02:37:06.781Z,19.69
2017-08-14T02:39:36.013Z,19.62
2017-08-14T02:42:05.430Z,19.56
2017-08-14T02:44:35.552Z,19.44
2017-08-14T02:47:04.637Z,19.38
2017-08-14T02:49:33.649Z,19.39
2017-08-14T02:52:02.929Z,19.38
2017-08-14T02:54:32.548Z,19.37
2017-08-14T02:57:01.347Z,19.35
2017-08-14T02:59:30.681Z,19.28
2017-08-14T03:02:00.049Z,19.24
2017-08-14T03:04:29.398Z,19.18
2017-08-14T03:06:58.224Z,19.14
2017-08-14T03:09:27.479Z,19.13
2017-08-14T03:11:57.076Z,19.10
2017-08-14T03:14:25.390Z,19.10
2017-08-14T03:16:54.052Z,19.07
2017-08-14T03:19:23.505Z,19.03
2017-08-14T03:21:52.664Z,19.00
2017-08-14T03:24:22.153Z,18.97
2017-08-14T03:26:51.047Z,18.95
2017-08-14T03:29:21.008Z,18.93
2017-08-14T03:31:50.474Z,18.89
2017-08-14T03:34:19.921Z,18.87
2017-08-14T03:36:49.316Z,18.81
2017-08-14T03:39:18.667Z,18.81
2017-08-14T03:41:48.136Z,18.80
2017-08-14T03:44:17.349Z,18.75
2017-08-14T03:46:46.853Z,18.72
2017-08-14T03:49:15.783Z,18.69
2017-08-14T03:51:44.826Z,18.65
2017-08-14T03:54:15.963Z,18.61
2017-08-14T03:56:44.909Z,18.58
2017-08-14T03:59:12.611Z,18.55
2017-08-14T04:01:40.059Z,18.49
2017-08-14T04:04:07.556Z,18.44
2017-08-14T04:06:35.051Z,18.42
2017-08-14T04:09:02.505Z,18.35
2017-08-14T04:11:29.978Z,18.31
2017-08-14T04:13:57.427Z,18.31
2017-08-14T04:16:24.907Z,18.28
2017-08-14T04:18:52.379Z,18.26
2017-08-14T04:21:19.875Z,18.28
2017-08-14T04:23:47.361Z,18.25
2017-08-14T04:26:14.808Z,18.25
2017-08-14T04:28:43.115Z,18.26
2017-08-14T04:31:10.579Z,18.27
2017-08-14T04:33:38.084Z,18.23
2017-08-14T04:36:06.410Z,18.23
2017-08-14T04:38:33.867Z,18.13
2017-08-14T04:41:01.360Z,18.13
2017-08-14T04:43:28.843Z,18.14
2017-08-14T04:45:56.341Z,18.15
2017-08-14T04:48:23.809Z,18.19
2017-08-14T04:50:51.323Z,18.20
2017-08-14T04:53:18.807Z,18.22
2017-08-14T04:55:46.330Z,18.21
2017-08-14T04:58:13.780Z,18.23
2017-08-14T05:00:41.275Z,18.25
2017-08-14T05:03:08.735Z,18.31
2017-08-14T05:05:36.207Z,18.33
2017-08-14T05:08:03.692Z,18.31
2017-08-14T05:10:31.175Z,18.34
2017-08-14T05:12:58.656Z,18.40
2017-08-14T05:15:26.120Z,18.45
2017-08-14T05:17:53.622Z,18.47
2017-08-14T05:20:21.083Z,18.56
2017-08-14T05:22:48.538Z,18.64
2017-08-14T05:25:16.024Z,18.67
2017-08-14T05:27:44.139Z,18.73
2017-08-14T05:30:11.648Z,18.79
2017-08-14T05:32:39.094Z,18.88
2017-08-14T05:35:06.712Z,19.00
2017-08-14T05:37:34.199Z,19.12
2017-08-14T05:40:01.652Z,19.25
2017-08-14T05:42:29.771Z,19.37
2017-08-14T05:44:57.227Z,19.43
2017-08-14T05:47:24.739Z,19.60
2017-08-14T05:49:52.198Z,19.70
2017-08-14T05:52:19.669Z,19.76
2017-08-14T05:54:47.175Z,20.21
2017-08-14T05:57:14.692Z,21.97
2017-08-14T05:59:42.176Z,24.33
2017-08-14T06:02:09.633Z,26.15
2017-08-14T06:04:37.119Z,27.35
2017-08-14T06:07:04.607Z,28.36
2017-08-14T06:09:32.064Z,29.39
2017-08-14T06:11:59.555Z,30.48
2017-08-14T06:14:27.019Z,29.11
2017-08-14T06:16:54.511Z,29.76
2017-08-14T06:19:21.974Z,29.01
2017-08-14T06:21:49.447Z,29.29
2017-08-14T06:24:16.947Z,30.77
2017-08-14T06:26:48.452Z,31.93
2017-08-14T06:29:16.012Z,32.89
2017-08-14T06:31:43.581Z,33.12
2017-08-14T06:34:11.067Z,33.18
2017-08-14T06:36:38.571Z,32.91
2017-08-14T06:39:06.051Z,30.96
2017-08-14T06:41:33.519Z,28.73
2017-08-14T06:44:01.076Z,26.67
2017-08-14T06:46:28.598Z,25.51
2017-08-14T06:48:56.070Z,25.17
2017-08-14T06:51:23.574Z,24.68
2017-08-14T06:53:51.092Z,24.66
2017-08-14T06:56:18.549Z,24.21
2017-08-14T06:58:46.047Z,24.10
2017-08-14T07:01:13.575Z,24.15
2017-08-14T07:03:41.071Z,23.56
2017-08-14T07:06:08.538Z,23.38
2017-08-14T07:08:36.044Z,23.54
2017-08-14T07:11:03.627Z,23.40
2017-08-14T07:13:31.175Z,23.29
2017-08-14T07:15:58.681Z,23.47
2017-08-14T07:18:26.150Z,23.27
2017-08-14T07:20:53.638Z,23.50
2017-08-14T07:23:21.128Z,23.66
2017-08-14T07:25:48.589Z,23.73
2017-08-14T07:28:16.755Z,23.59
2017-08-14T07:30:44.267Z,23.54
2017-08-14T07:33:11.775Z,23.79
2017-08-14T07:35:39.271Z,23.75
2017-08-14T07:38:06.723Z,23.89
2017-08-14T07:40:34.222Z,23.95
2017-08-14T07:43:01.727Z,23.86
2017-08-14T07:45:29.375Z,23.52
2017-08-14T07:47:56.863Z,23.59
2017-08-14T07:50:24.318Z,23.82
2017-08-14T07:52:51.832Z,23.92
2017-08-14T07:55:19.375Z,23.99
2017-08-14T07:57:46.927Z,24.13
2017-08-14T08:00:14.400Z,24.11
2017-08-14T08:02:41.916Z,24.13
2017-08-14T08:05:09.443Z,24.24
2017-08-14T08:07:36.888Z,24.50
2017-08-14T08:10:04.389Z,24.69
2017-08-14T08:12:31.849Z,24.83
2017-08-14T08:14:59.335Z,24.77
2017-08-14T08:17:26.825Z,24.77
2017-08-14T08:19:54.344Z,24.77
2017-08-14T08:22:22.707Z,24.78
2017-08-14T08:24:50.159Z,24.91
2017-08-14T08:27:17.651Z,24.95
2017-08-14T08:29:45.128Z,25.08
2017-08-14T08:32:12.588Z,25.33
2017-08-14T08:34:40.069Z,25.59
2017-08-14T08:37:08.177Z,25.64
2017-08-14T08:39:35.666Z,25.58
2017-08-14T08:42:03.115Z,25.67
2017-08-14T08:44:30.628Z,25.83
2017-08-14T08:46:58.988Z,26.06
2017-08-14T08:49:26.515Z,26.18
2017-08-14T08:51:54.011Z,26.37
2017-08-14T08:54:21.468Z,26.36
2017-08-14T08:56:48.938Z,26.18
2017-08-14T08:59:16.423Z,26.58
2017-08-14T09:01:43.879Z,26.68
2017-08-14T09:04:11.371Z,26.84
2017-08-14T09:06:38.816Z,26.57
2017-08-14T09:09:06.288Z,26.98
2017-08-14T09:11:33.767Z,27.09
2017-08-14T09:14:01.244Z,27.30
2017-08-14T09:16:28.744Z,27.40
2017-08-14T09:19:05.616Z,26.98
2017-08-14T09:21:33.061Z,27.24
2017-08-14T09:24:00.516Z,27.40
2017-08-14T09:26:28.106Z,27.00
2017-08-14T09:28:55.565Z,27.31
2017-08-14T09:31:23.048Z,27.42
2017-08-14T09:33:50.495Z,27.59
2017-08-14T09:36:17.980Z,27.90
2017-08-14T09:38:45.453Z,27.77
2017-08-14T09:41:12.944Z,27.59
2017-08-14T09:43:40.402Z,27.95
2017-08-14T09:46:07.891Z,27.98
2017-08-14T09:48:35.466Z,28.27
2017-08-14T09:51:03.068Z,28.42
2017-08-14T09:53:30.648Z,28.20
2017-08-14T09:55:58.108Z,28.26
2017-08-14T09:58:25.602Z,28.42
2017-08-14T10:00:53.079Z,28.28
2017-08-14T10:03:20.541Z,27.70
2017-08-14T10:05:48.532Z,27.84
2017-08-14T10:08:16.350Z,28.09
2017-08-14T10:10:43.893Z,28.02
2017-08-14T10:13:11.395Z,28.31
2017-08-14T10:15:38.923Z,28.27
2017-08-14T10:18:06.531Z,28.59
2017-08-14T10:20:34.081Z,28.74
2017-08-14T10:23:01.585Z,28.52
2017-08-14T10:25:29.042Z,28.65
2017-08-14T10:27:56.558Z,28.91
2017-08-14T10:30:24.691Z,29.13
2017-08-14T10:32:52.143Z,28.52
2017-08-14T10:35:19.631Z,28.70
2017-08-14T10:37:47.076Z,28.10
2017-08-14T10:40:14.603Z,27.87
2017-08-14T10:42:42.078Z,28.21
2017-08-14T10:45:09.523Z,28.34
2017-08-14T10:47:37.016Z,28.61
2017-08-14T10:50:04.503Z,28.44
2017-08-14T10:52:31.992Z,28.42
2017-08-14T10:54:59.447Z,28.41
2017-08-14T10:57:26.956Z,28.67
2017-08-14T10:59:54.513Z,28.73
2017-08-14T11:02:21.995Z,28.58
2017-08-14T11:04:49.480Z,28.39
2017-08-14T11:07:16.973Z,28.44
2017-08-14T11:09:44.429Z,28.55
2017-08-14T11:12:11.920Z,28.55
2017-08-14T11:14:39.387Z,28.32
2017-08-14T11:17:06.864Z,28.01
2017-08-14T11:19:34.337Z,27.99
2017-08-14T11:22:01.827Z,28.23
2017-08-14T11:24:29.282Z,28.54
2017-08-14T11:26:56.732Z,28.63
2017-08-14T11:29:24.215Z,28.70
2017-08-14T11:31:51.680Z,28.81
2017-08-14T11:34:19.136Z,28.78
2017-08-14T11:36:46.608Z,28.96
2017-08-14T11:39:14.065Z,29.11
2017-08-14T11:41:41.570Z,29.11
2017-08-14T11:44:09.034Z,29.22
2017-08-14T11:46:36.514Z,29.26
2017-08-14T11:49:04.020Z,28.99
2017-08-14T11:51:31.476Z,29.16
2017-08-14T11:53:58.947Z,29.36
2017-08-14T11:56:26.437Z,29.52
2017-08-14T11:58:53.979Z,29.53
2017-08-14T12:01:21.440Z,29.65
2017-08-14T12:03:48.901Z,29.67
2017-08-14T12:06:17.327Z,30.03
2017-08-14T12:08:44.779Z,30.19
2017-08-14T12:11:12.264Z,30.19
2017-08-14T12:13:39.719Z,30.06
2017-08-14T12:16:07.215Z,30.10
2017-08-14T12:18:34.700Z,30.38
2017-08-14T12:21:02.166Z,30.47
2017-08-14T12:23:29.660Z,30.55
2017-08-14T12:25:57.129Z,30.49
2017-08-14T12:28:25.715Z,30.32
2017-08-14T12:30:53.175Z,30.45
2017-08-14T12:33:20.652Z,29.91
2017-08-14T12:35:48.143Z,30.39
2017-08-14T12:38:15.609Z,31.13
2017-08-14T12:40:43.095Z,32.69
2017-08-14T12:43:10.572Z,33.15
2017-08-14T12:45:38.094Z,34.87
2017-08-14T12:48:05.586Z,35.90
2017-08-14T12:50:33.146Z,35.85
2017-08-14T12:53:00.722Z,35.09
2017-08-14T12:55:28.226Z,33.50
2017-08-14T12:57:55.679Z,32.70
2017-08-14T13:00:23.197Z,32.56
2017-08-14T13:02:50.656Z,34.21
2017-08-14T13:05:18.168Z,35.33
2017-08-14T13:07:45.645Z,36.83
2017-08-14T13:10:13.105Z,36.65
2017-08-14T13:12:40.593Z,37.12
2017-08-14T13:15:08.060Z,37.35
2017-08-14T13:17:35.569Z,38.32
2017-08-14T13:20:03.031Z,37.33
2017-08-14T13:22:30.517Z,37.25
2017-08-14T13:24:57.969Z,35.71
2017-08-14T13:27:25.431Z,35.13
2017-08-14T13:29:52.937Z,35.90
2017-08-14T13:32:20.406Z,36.14
2017-08-14T13:34:47.879Z,35.84
2017-08-14T13:37:16.641Z,35.31
2017-08-14T13:39:44.167Z,34.67
2017-08-14T13:42:11.632Z,34.53
2017-08-14T13:44:39.148Z,34.64
2017-08-14T13:47:06.643Z,34.15
2017-08-14T13:49:34.116Z,34.85
2017-08-14T13:52:01.604Z,35.30
2017-08-14T13:54:29.063Z,35.15
2017-08-14T13:56:56.613Z,34.58
2017-08-14T13:59:24.061Z,34.86
2017-08-14T14:01:51.502Z,34.39
2017-08-14T14:04:19.022Z,34.68
2017-08-14T14:06:46.498Z,34.77
2017-08-14T14:09:13.967Z,34.09
2017-08-14T14:11:41.461Z,33.79
2017-08-14T14:14:08.948Z,34.45
2017-08-14T14:16:36.507Z,33.85
2017-08-14T14:19:03.992Z,33.34
2017-08-14T14:21:31.453Z,33.96
2017-08-14T14:23:58.915Z,34.26
2017-08-14T14:26:26.406Z,34.35
2017-08-14T14:28:53.861Z,34.89
2017-08-14T14:31:21.460Z,35.07
2017-08-14T14:33:49.048Z,34.47
2017-08-14T14:36:16.547Z,34.20
2017-08-14T14:38:45.155Z,34.09
2017-08-14T14:41:12.691Z,33.91
2017-08-14T14:43:40.309Z,33.79
2017-08-14T14:46:08.651Z,33.62
2017-08-14T14:48:36.227Z,33.81
2017-08-14T14:51:03.698Z,33.92
2017-08-14T14:53:31.219Z,33.99
2017-08-14T14:55:58.675Z,34.50
2017-08-14T14:58:26.116Z,34.91
2017-08-14T15:00:53.671Z,35.09
2017-08-14T15:03:21.123Z,34.70
2017-08-14T15:05:48.669Z,34.61
2017-08-14T15:08:16.138Z,34.87
2017-08-14T15:10:43.619Z,34.68
2017-08-14T15:13:11.104Z,34.65
2017-08-14T15:15:38.595Z,34.26
2017-08-14T15:18:06.559Z,34.06
2017-08-14T15:20:34.101Z,34.43
2017-08-14T15:23:01.646Z,34.70
2017-08-14T15:25:29.415Z,34.47
2017-08-14T15:27:56.936Z,34.22
2017-08-14T15:30:24.487Z,33.83
2017-08-14T15:32:52.804Z,33.44
2017-08-14T15:35:20.332Z,32.98
2017-08-14T15:37:47.826Z,32.90
2017-08-14T15:40:15.292Z,32.62
2017-08-14T15:42:43.620Z,32.83
2017-08-14T15:45:11.216Z,32.68
2017-08-14T15:47:38.751Z,32.38
2017-08-14T15:50:06.453Z,32.42
2017-08-14T15:52:33.927Z,32.05
2017-08-14T15:55:01.543Z,31.83
2017-08-14T15:57:29.320Z,31.35
2017-08-14T15:59:57.725Z,31.21
2017-08-14T16:02:25.934Z,31.37
2017-08-14T16:04:55.680Z,31.19
2017-08-14T16:07:23.291Z,30.82
2017-08-14T16:09:50.820Z,30.53
2017-08-14T16:12:18.396Z,30.43
2017-08-14T16:14:46.333Z,30.27
2017-08-14T16:17:13.956Z,30.19
2017-08-14T16:19:46.393Z,30.13
2017-08-14T16:22:14.724Z,30.15
2017-08-14T16:24:42.243Z,30.17
2017-08-14T16:36:06.176Z,29.87
2017-08-14T16:47:52.200Z,29.39
2017-08-14T17:22:08.509Z,29.11
2017-08-14T17:31:40.670Z,29.01
2017-08-14T17:34:08.970Z,29.06
2017-08-14T17:36:36.598Z,29.06
2017-08-14T17:42:26.223Z,29.04
2017-08-14T17:44:54.471Z,28.94
2017-08-14T17:47:22.468Z,28.90
2017-08-14T17:49:50.634Z,28.89
2017-08-14T17:52:29.693Z,28.88
2017-08-14T17:55:04.085Z,28.83
2017-08-14T18:06:41.242Z,28.61
2017-08-14T18:09:19.170Z,28.58
2017-08-14T18:14:50.093Z,28.41
2017-08-14T18:34:45.975Z,28.09
2017-08-14T18:37:13.592Z,28.00
2017-08-14T18:48:26.587Z,27.56
2017-08-14T18:50:54.710Z,27.51
2017-08-14T18:53:24.052Z,27.45
2017-08-14T18:55:56.259Z,27.42
2017-08-14T18:58:24.152Z,27.35
2017-08-14T19:32:30.374Z,26.41
2017-08-14T19:34:58.026Z,26.38
2017-08-14T19:37:25.680Z,26.35
2017-08-14T19:39:53.343Z,26.23
2017-08-14T20:03:35.850Z,25.56
2017-08-14T20:09:15.358Z,25.31
2017-08-14T20:11:42.925Z,25.41
2017-08-14T21:29:07.534Z,24.08
2017-08-14T22:26:38.794Z,23.22
2017-08-14T22:29:06.791Z,23.25
2017-08-14T22:31:34.570Z,23.22
2017-08-14T23:03:23.627Z,22.71
2017-08-14T23:05:51.855Z,22.73
2017-08-14T23:08:23.300Z,22.65
2017-08-14T23:10:51.434Z,22.60
2017-08-14T23:13:19.099Z,22.57
2017-08-14T23:15:47.537Z,22.60
2017-08-14T23:18:16.388Z,22.64
2017-08-14T23:29:15.571Z,22.60
